Time;durP1;ratioP1;P1;durP2;ratioP2;P2;SDS_P1;SDS_P2;PMS_P1;PMS_P2;Temp;Humidity;BMP_temperature;BMP_pressure;BME280_temperature;BME280_humidity;BME280_pressure;Samples;Min_cycle;Max_cycle;Signal;HPM_P1;HPM_P2
2022/01/28 00:01:21;;;;;;;;;67.50;50.00;;;;;9.09;88.12;103140.63;5057102;28;45615;-69
2022/01/28 00:03:47;;;;;;;;;68.00;46.75;;;;;9.10;88.26;103142.34;5055313;28;46346;-69
2022/01/28 00:06:13;;;;;;;;;66.00;47.25;;;;;9.11;87.98;103141.47;5055003;27;45535;-69
2022/01/28 00:08:38;;;;;;;;;67.25;50.50;;;;;9.09;87.95;103138.84;5055575;28;45454;-69
2022/01/28 00:11:03;;;;;;;;;64.50;48.25;;;;;9.07;88.26;103130.09;5058331;28;45846;-69
2022/01/28 00:13:33;;;;;;;;;66.00;52.00;;;;;9.06;87.96;103130.97;5057407;28;46562;-69
2022/01/28 00:16:24;;;;;;;;;71.00;50.50;;;;;9.08;88.17;103147.59;5058437;28;45953;-69
2022/01/28 00:38:02;;;;;;;;;66.00;51.25;;;;;9.07;87.87;103156.31;5056511;28;45383;-69
2022/01/28 00:40:29;;;;;;;;;68.75;51.00;;;;;9.08;87.61;103163.34;5052602;28;45852;-69
2022/01/28 00:42:54;;;;;;;;;71.00;50.00;;;;;9.08;87.70;103167.69;5055660;28;45346;-69
2022/01/28 00:45:20;;;;;;;;;67.50;51.50;;;;;9.11;87.75;103178.19;5054214;28;46345;-69
2022/01/28 00:47:47;;;;;;;;;72.25;51.50;;;;;9.13;87.95;103181.69;5053736;28;45438;-69
2022/01/28 00:50:13;;;;;;;;;63.00;51.25;;;;;9.12;87.59;103174.69;5055152;28;45561;-69
2022/01/28 00:52:39;;;;;;;;;65.00;50.50;;;;;9.13;87.63;103164.22;5056173;28;45426;-69
2022/01/28 00:55:04;;;;;;;;;75.50;54.75;;;;;9.14;87.67;103172.97;5054804;28;46747;-69
2022/01/28 00:57:29;;;;;;;;;68.00;49.75;;;;;9.15;87.54;103170.34;5053569;28;45564;-69
2022/01/28 00:59:55;;;;;;;;;65.75;50.00;;;;;9.16;87.59;103179.09;5055236;28;45486;-69
2022/01/28 01:02:20;;;;;;;;;62.67;47.00;;;;;9.18;87.06;103181.72;5055358;28;47272;-69
2022/01/28 01:04:46;;;;;;;;;64.75;48.25;;;;;9.14;87.39;103180.84;5053974;28;45648;-69
2022/01/28 01:07:11;;;;;;;;;69.00;52.75;;;;;9.18;87.37;103189.56;5054899;28;45502;-69
2022/01/28 01:09:37;;;;;;;;;69.75;50.75;;;;;9.14;87.19;103183.47;5054202;28;45415;-69
2022/01/28 01:12:03;;;;;;;;;70.25;49.75;;;;;9.10;86.88;103187.81;5054472;28;45224;-69
2022/01/28 01:14:28;;;;;;;;;69.50;49.50;;;;;9.03;86.78;103182.53;5053180;28;47418;-69
2022/01/28 01:19:33;;;;;;;;;70.75;50.00;;;;;9.03;87.45;103196.56;5058224;28;45532;-69
2022/01/28 01:22:00;;;;;;;;;62.25;48.00;;;;;9.01;87.41;103190.41;5057705;28;45514;-69
2022/01/28 01:24:27;;;;;;;;;66.00;50.75;;;;;8.93;87.48;103178.13;5055972;28;48279;-69
2022/01/28 01:26:53;;;;;;;;;58.25;44.00;;;;;9.03;87.31;103209.69;5057293;28;46159;-69
2022/01/28 01:29:20;;;;;;;;;68.00;50.25;;;;;9.02;87.42;103202.66;5058375;28;45544;-69
2022/01/28 01:31:47;;;;;;;;;66.75;49.00;;;;;9.02;87.27;103214.88;5058575;28;45736;-69
2022/01/28 01:34:19;;;;;;;;;67.75;50.00;;;;;9.00;87.15;103201.78;5057241;28;45728;-69
2022/01/28 01:36:45;;;;;;;;;68.25;50.00;;;;;8.99;87.31;103205.28;5056745;28;45404;-69
2022/01/28 01:39:15;;;;;;;;;63.25;45.50;;;;;9.03;87.54;103216.63;5057767;28;45359;-69
2022/01/28 01:41:46;;;;;;;;;67.25;48.75;;;;;9.05;87.54;103217.53;5061692;28;45288;-69
2022/01/28 01:52:35;;;;;;;;;67.50;50.75;;;;;9.08;87.46;103233.28;4976689;28;45779;-69
2022/01/28 01:55:00;;;;;;;;;62.25;47.75;;;;;9.05;87.28;103234.16;4982023;28;49730;-69
2022/01/28 01:57:26;;;;;;;;;62.25;48.75;;;;;9.06;87.34;103235.91;4981097;28;45730;-69
2022/01/28 01:59:51;;;;;;;;;65.75;47.00;;;;;9.05;87.43;103234.16;4978212;28;45518;-69
2022/01/28 02:02:16;;;;;;;;;62.00;46.75;;;;;9.03;87.56;103233.28;4976041;28;45701;-69
2022/01/28 02:04:42;;;;;;;;;63.75;49.25;;;;;9.06;87.44;103242.88;4979504;28;46563;-69
2022/01/28 02:07:08;;;;;;;;;62.75;48.75;;;;;9.00;87.24;103248.13;4978584;28;45491;-69
2022/01/28 02:09:33;;;;;;;;;67.00;49.00;;;;;8.99;87.44;103256.88;4977040;28;45297;-69
2022/01/28 02:12:00;;;;;;;;;63.00;46.50;;;;;9.01;87.12;103244.63;4978128;28;47553;-69
2022/01/28 02:14:25;;;;;;;;;67.25;50.25;;;;;8.98;87.34;103242.88;4977183;28;46570;-69
2022/01/28 02:16:51;;;;;;;;;67.50;48.25;;;;;9.01;87.58;103239.38;4975315;28;45351;-69
2022/01/28 02:19:16;;;;;;;;;69.00;45.50;;;;;9.00;87.39;103250.75;4987368;28;45398;-69
2022/01/28 02:21:48;;;;;;;;;64.50;47.50;;;;;9.00;87.50;103256.00;4981274;28;45562;-69
2022/01/28 02:24:17;;;;;;;;;64.50;47.25;;;;;8.99;87.69;103247.25;5038349;28;46595;-69
2022/01/28 02:26:42;;;;;;;;;63.75;48.25;;;;;8.98;87.44;103256.00;5058432;28;45841;-69
2022/01/28 02:29:12;;;;;;;;;63.75;47.00;;;;;8.92;87.46;103245.44;5057135;28;45479;-69
2022/01/28 02:31:38;;;;;;;;;66.00;45.50;;;;;8.92;87.67;103253.31;5056896;28;47407;-69
2022/01/28 02:34:05;;;;;;;;;67.50;50.50;;;;;8.91;87.44;103255.94;5057405;28;46206;-69
2022/01/28 02:36:31;;;;;;;;;65.75;44.75;;;;;8.91;87.39;103259.44;5056598;28;45936;-69
2022/01/28 02:38:58;;;;;;;;;67.75;46.00;;;;;8.89;87.46;103258.56;5054984;28;45718;-69
2022/01/28 02:41:26;;;;;;;;;60.00;46.50;;;;;8.86;87.72;103255.91;5056508;28;45534;-69
2022/01/28 02:44:43;;;;;;;;;65.50;46.25;;;;;8.82;87.63;103260.28;5057258;28;46187;-69
2022/01/28 02:46:55;;;;;;;;;65.75;48.00;;;;;8.87;87.85;103262.91;5049035;28;45901;-69
2022/01/28 02:49:21;;;;;;;;;56.50;45.75;;;;;8.86;87.71;103258.53;5057174;28;45376;-69
2022/01/28 02:51:47;;;;;;;;;62.50;45.00;;;;;8.85;87.57;103260.28;5056465;28;45672;-69
2022/01/28 02:54:15;;;;;;;;;66.50;47.50;;;;;8.83;88.03;103262.03;5056790;27;45439;-69
2022/01/28 02:56:48;;;;;;;;;58.00;42.25;;;;;8.78;87.69;103247.16;5056674;28;45486;-69
2022/01/28 02:59:14;;;;;;;;;62.75;46.50;;;;;8.81;87.62;103262.88;5057801;28;45535;-69
2022/01/28 03:01:39;;;;;;;;;61.75;46.00;;;;;8.79;87.89;103262.88;5056649;28;45548;-69
2022/01/28 03:04:06;;;;;;;;;59.75;45.00;;;;;8.80;87.61;103267.25;5056573;28;46371;-69
2022/01/28 03:06:32;;;;;;;;;63.00;47.00;;;;;8.77;87.79;103258.50;5056028;28;45333;-69
2022/01/28 03:09:14;;;;;;;;;68.25;48.25;;;;;8.77;88.00;103268.97;5056496;28;45422;-69
2022/01/28 03:19:27;;;;;;;;;64.75;47.00;;;;;8.77;87.92;103243.66;5056185;28;45565;-69
2022/01/28 03:21:54;;;;;;;;;63.00;47.00;;;;;8.76;88.27;103238.38;5056792;28;45602;-69
2022/01/28 03:24:21;;;;;;;;;66.50;48.00;;;;;8.77;87.94;103253.25;5055506;28;46609;-69
2022/01/28 03:26:52;;;;;;;;;64.25;50.00;;;;;8.74;88.31;103241.00;5056175;28;45359;-69
2022/01/28 03:29:18;;;;;;;;;70.00;47.25;;;;;8.77;87.95;103248.00;5057459;28;45404;-69
2022/01/28 03:31:43;;;;;;;;;60.75;46.75;;;;;8.80;87.99;103251.53;5056140;28;45406;-69
2022/01/28 03:34:09;;;;;;;;;62.00;43.75;;;;;8.82;87.97;103251.53;5054658;28;46483;-69
2022/01/28 03:36:35;;;;;;;;;64.00;47.50;;;;;8.81;88.10;103255.03;5055365;28;45450;-69
2022/01/28 03:39:00;;;;;;;;;62.00;47.25;;;;;8.83;88.13;103255.94;5056079;28;45419;-69
2022/01/28 03:41:26;;;;;;;;;56.75;45.75;;;;;8.83;88.06;103254.19;5056291;28;45274;-69
2022/01/28 03:43:58;;;;;;;;;65.50;49.00;;;;;8.85;87.93;103246.31;5057387;28;46425;-69
2022/01/28 03:46:25;;;;;;;;;66.00;50.25;;;;;8.84;87.88;103250.69;5056559;28;45510;-69
2022/01/28 03:48:51;;;;;;;;;62.75;41.25;;;;;8.85;87.94;103257.66;5055992;28;45497;-69
2022/01/28 03:51:17;;;;;;;;;69.75;50.25;;;;;8.83;87.75;103254.19;5054953;27;45491;-69
2022/01/28 03:53:42;;;;;;;;;60.00;45.00;;;;;8.84;87.85;103250.69;5056705;28;46455;-69
2022/01/28 03:56:07;;;;;;;;;63.67;47.00;;;;;8.78;88.10;103247.16;5054472;28;45486;-69
2022/01/28 03:58:33;;;;;;;;;60.50;45.00;;;;;8.83;88.04;103271.66;5057409;28;45723;-69
2022/01/28 04:00:59;;;;;;;;;69.75;47.25;;;;;8.83;88.20;103269.91;5055409;28;45593;-69
2022/01/28 04:11:37;;;;;;;;;62.75;47.25;;;;;8.84;88.04;103283.91;5041347;28;45314;-69
2022/01/28 04:14:15;;;;;;;;;62.50;48.00;;;;;8.86;88.10;103287.38;5045128;28;46269;-69
2022/01/28 04:19:25;;;;;;;;;63.75;43.75;;;;;8.87;88.00;103278.66;5040842;28;45621;-69
2022/01/28 04:21:50;;;;;;;;;59.25;47.50;;;;;8.87;87.96;103283.88;5036086;28;45407;-69
2022/01/28 04:24:16;;;;;;;;;70.50;48.25;;;;;8.83;88.07;103283.03;5036565;28;45633;-69
2022/01/28 04:26:41;;;;;;;;;66.50;44.50;;;;;8.83;87.88;103283.03;5036509;28;45854;-69
2022/01/28 04:29:08;;;;;;;;;61.00;46.75;;;;;8.86;87.91;103287.38;5036568;28;45412;-69
2022/01/28 04:31:34;;;;;;;;;67.25;46.50;;;;;8.85;87.93;103290.88;5046412;28;45606;-69
2022/01/28 04:34:01;;;;;;;;;68.25;49.25;;;;;8.82;87.79;103275.13;5034073;28;46315;-69
2022/01/28 04:36:29;;;;;;;;;62.25;46.25;;;;;8.84;88.15;103289.13;5033538;28;45904;-69
2022/01/28 04:39:11;;;;;;;;;63.75;47.75;;;;;8.82;88.06;103275.13;5040449;28;47699;-69
2022/01/28 04:41:53;;;;;;;;;62.50;49.25;;;;;8.83;88.14;103287.38;5032677;28;45449;-71
2022/01/28 04:44:26;;;;;;;;;60.50;45.25;;;;;8.78;87.83;103282.13;5048176;28;46253;-69
2022/01/28 04:47:03;;;;;;;;;56.75;43.75;;;;;8.69;87.90;103270.69;5054655;28;45941;-69
2022/01/28 04:49:46;;;;;;;;;62.00;46.00;;;;;8.71;87.72;103292.53;5055877;28;45394;-69
2022/01/28 04:57:57;;;;;;;;;57.75;45.50;;;;;8.66;87.88;103299.50;5052854;28;45667;-69
2022/01/28 05:16:47;;;;;;;;;65.25;46.50;;;;;8.50;87.76;103320.38;5008504;28;46165;-69
2022/01/28 05:27:17;;;;;;;;;63.75;43.25;;;;;8.27;87.11;103340.25;5012833;28;45701;-68
2022/01/28 05:29:42;;;;;;;;;59.50;43.00;;;;;8.23;87.12;103348.94;5013789;28;45879;-68
2022/01/28 05:32:09;;;;;;;;;62.00;46.75;;;;;8.22;87.34;103349.81;5011243;28;45615;-68
2022/01/28 05:34:34;;;;;;;;;66.00;46.50;;;;;8.19;87.65;103349.78;5011972;28;45612;-69
2022/01/28 05:37:00;;;;;;;;;64.00;46.25;;;;;8.15;87.29;103353.28;5011937;28;46528;-69
2022/01/28 05:39:25;;;;;;;;;64.50;45.00;;;;;8.16;87.53;103357.63;5011602;28;45448;-69
2022/01/28 05:41:50;;;;;;;;;64.25;45.75;;;;;8.12;87.32;103351.47;5011789;28;45907;-69
2022/01/28 05:44:18;;;;;;;;;69.50;49.75;;;;;8.11;87.43;103358.47;5013930;28;45363;-69
2022/01/28 05:46:45;;;;;;;;;67.50;49.50;;;;;8.08;87.42;103363.66;5014349;28;47042;-69
2022/01/28 05:49:10;;;;;;;;;65.50;47.50;;;;;8.05;87.55;103363.66;5014054;28;46002;-69
2022/01/28 05:51:35;;;;;;;;;68.00;49.25;;;;;8.09;87.18;103372.41;5013861;28;45339;-69
2022/01/28 05:54:01;;;;;;;;;65.00;49.50;;;;;8.05;87.02;103370.63;5015444;28;45644;-69
2022/01/28 05:56:27;;;;;;;;;71.00;49.00;;;;;7.98;87.33;103379.28;5013538;28;46574;-69
2022/01/28 05:58:53;;;;;;;;;69.75;48.50;;;;;7.95;87.40;103387.13;5013969;28;46031;-69
2022/01/28 06:01:19;;;;;;;;;64.75;50.00;;;;;7.91;87.31;103398.41;5014576;28;45425;-69
2022/01/28 06:03:44;;;;;;;;;66.00;46.33;;;;;7.89;87.43;103402.75;5016186;28;45500;-69
2022/01/28 06:06:18;;;;;;;;;64.25;45.50;;;;;7.75;87.24;103385.16;5013683;28;46230;-69
2022/01/28 06:08:45;;;;;;;;;64.00;46.00;;;;;7.78;87.02;103405.25;5022718;28;46025;-69
2022/01/28 06:11:10;;;;;;;;;59.75;48.00;;;;;7.76;87.25;103402.59;5055542;28;45471;-69
2022/01/28 06:13:36;;;;;;;;;64.00;48.00;;;;;7.72;87.29;103397.31;5057637;28;45458;-69
2022/01/28 06:16:01;;;;;;;;;60.33;46.00;;;;;7.74;87.26;103403.47;5056315;28;55312;-69
2022/01/28 06:18:26;;;;;;;;;58.75;45.50;;;;;7.70;87.30;103404.28;5056410;28;45589;-69
2022/01/28 06:20:52;;;;;;;;;63.50;43.50;;;;;7.68;87.31;103400.78;5056596;28;45718;-69
2022/01/28 06:23:17;;;;;;;;;56.00;41.25;;;;;7.62;87.70;103395.44;5057787;28;45540;-69
2022/01/28 06:25:44;;;;;;;;;59.00;43.25;;;;;7.63;87.56;103394.63;5055481;28;46595;-69
2022/01/28 06:28:09;;;;;;;;;54.75;41.75;;;;;7.62;87.61;103398.94;5057437;28;45572;-69
2022/01/28 06:30:34;;;;;;;;;64.75;46.25;;;;;7.64;87.58;103401.59;5056821;28;45384;-69
2022/01/28 06:33:00;;;;;;;;;60.50;42.25;;;;;7.63;87.53;103405.97;5056922;28;45648;-69
2022/01/28 06:35:25;;;;;;;;;59.50;41.25;;;;;7.63;87.30;103402.47;5057440;28;47693;-69
2022/01/28 06:37:50;;;;;;;;;62.50;43.25;;;;;7.57;87.44;103391.06;5055172;28;45925;-69
2022/01/28 06:40:17;;;;;;;;;57.00;43.00;;;;;7.57;87.40;103400.66;5056405;28;46391;-69
2022/01/28 06:42:43;;;;;;;;;56.25;44.00;;;;;7.54;87.55;103396.25;5055992;28;45392;-69
2022/01/28 06:45:09;;;;;;;;;59.25;44.75;;;;;7.54;87.88;103401.47;5057564;28;46437;-69
2022/01/28 06:47:35;;;;;;;;;51.75;38.50;;;;;7.55;88.12;103400.63;5057200;28;45406;-69
2022/01/28 06:50:02;;;;;;;;;58.00;42.25;;;;;7.58;87.56;103400.66;5057742;27;45530;-69
2022/01/28 06:52:28;;;;;;;;;60.00;45.00;;;;;7.58;87.64;103403.28;5057281;28;45438;-70
2022/01/28 06:54:53;;;;;;;;;61.25;42.50;;;;;7.59;87.87;103407.66;5056604;28;45437;-69
2022/01/28 06:57:18;;;;;;;;;57.75;41.75;;;;;7.62;87.90;103404.19;5056223;27;45460;-69
2022/01/28 06:59:44;;;;;;;;;60.50;44.25;;;;;7.63;87.98;103413.81;5057504;28;45352;-69
2022/01/28 07:02:09;;;;;;;;;55.50;41.00;;;;;7.70;87.83;103417.38;5057499;28;45507;-69
2022/01/28 07:04:35;;;;;;;;;47.50;39.25;;;;;7.70;87.36;103407.78;5057045;28;45567;-69
2022/01/28 07:07:00;;;;;;;;;61.50;42.50;;;;;7.58;87.40;103395.44;5056389;28;45414;-70
2022/01/28 07:09:26;;;;;;;;;56.00;41.50;;;;;7.74;86.98;103414.81;5056024;28;45839;-69
2022/01/28 07:11:51;;;;;;;;;49.75;41.25;;;;;7.74;87.50;103408.69;5057137;28;45427;-69
2022/01/28 07:14:17;;;;;;;;;58.25;41.75;;;;;7.77;87.05;103419.19;5055743;28;45513;-69
2022/01/28 07:16:42;;;;;;;;;55.75;42.75;;;;;7.75;87.41;103411.31;5056943;28;45365;-69
2022/01/28 07:19:09;;;;;;;;;70.00;52.75;;;;;7.71;87.58;103414.75;5057948;28;45281;-69
2022/01/28 07:21:34;;;;;;;;;65.00;52.00;;;;;7.70;87.16;103420.00;5055671;28;45507;-69
2022/01/28 07:24:00;;;;;;;;;70.00;48.25;;;;;7.63;87.26;103419.03;5057012;28;46790;-69
2022/01/28 07:26:25;;;;;;;;;43.67;40.67;;;;;7.62;87.69;103426.84;5056956;28;45415;-68
2022/01/28 07:28:52;;;;;;;;;59.25;42.00;;;;;7.65;87.46;103426.91;5058922;28;45290;-70
2022/01/28 07:31:18;;;;;;;;;54.50;42.25;;;;;7.68;87.39;103442.66;5056578;28;45488;-69
2022/01/28 07:33:44;;;;;;;;;55.00;41.75;;;;;7.69;87.76;103439.19;5055550;28;47088;-69
2022/01/28 07:36:09;;;;;;;;;49.50;39.75;;;;;7.69;87.71;103441.78;5056251;28;45653;-71
2022/01/28 07:38:34;;;;;;;;;53.50;39.25;;;;;7.75;87.59;103441.88;5072768;27;45437;-70
2022/01/28 07:41:01;;;;;;;;;52.25;38.50;;;;;7.79;87.73;103448.91;5058892;28;45679;-70
2022/01/28 07:43:27;;;;;;;;;43.50;32.00;;;;;7.82;87.72;103454.16;5057596;28;47239;-70
2022/01/28 07:45:53;;;;;;;;;57.75;41.75;;;;;7.84;87.59;103455.94;5056749;28;45330;-70
2022/01/28 07:48:18;;;;;;;;;51.50;39.50;;;;;7.84;87.31;103457.69;5053771;28;45375;-70
2022/01/28 07:50:44;;;;;;;;;53.25;40.75;;;;;7.87;87.82;103460.31;5056550;28;45482;-69
2022/01/28 07:53:14;;;;;;;;;62.25;40.50;;;;;7.90;87.45;103469.97;5055682;28;59777;-70
2022/01/28 07:55:40;;;;;;;;;52.25;40.75;;;;;7.93;87.75;103463.00;5056726;28;45422;-70
2022/01/28 07:58:05;;;;;;;;;49.67;41.00;;;;;7.99;87.53;103460.50;5057079;28;45490;-69
2022/01/28 08:00:31;;;;;;;;;44.00;37.25;;;;;8.02;87.61;103460.50;5056183;28;45430;-70
2022/01/28 08:02:56;;;;;;;;;47.25;33.00;;;;;8.13;87.45;103475.47;5056269;28;46528;-70
2022/01/28 08:05:22;;;;;;;;;51.67;39.00;;;;;8.16;87.45;103470.28;5056202;28;45411;-70
2022/01/28 08:07:47;;;;;;;;;50.50;40.00;;;;;8.23;87.50;103483.44;5056681;27;45341;-70
2022/01/28 08:10:16;;;;;;;;;49.50;38.00;;;;;8.27;87.01;103484.34;5056198;28;47374;-70
2022/01/28 08:12:50;;;;;;;;;52.25;39.50;;;;;8.29;86.88;103482.63;5055475;28;46155;-70
2022/01/28 08:15:16;;;;;;;;;44.50;34.00;;;;;8.37;86.98;103483.63;5056853;28;45969;-70
2022/01/28 08:17:42;;;;;;;;;50.75;39.00;;;;;8.44;87.15;103487.19;5056337;28;45412;-70
2022/01/28 08:20:08;;;;;;;;;47.25;41.25;;;;;8.50;87.11;103480.25;5055888;28;45615;-70
2022/01/28 08:22:46;;;;;;;;;49.75;38.00;;;;;8.55;86.84;103477.66;5055549;28;46180;-70
2022/01/28 08:25:13;;;;;;;;;56.75;43.75;;;;;8.64;87.05;103496.13;5040481;28;45526;-70
2022/01/28 08:27:38;;;;;;;;;48.50;39.75;;;;;8.69;86.84;103489.16;5055651;28;45332;-70
2022/01/28 08:30:04;;;;;;;;;42.00;35.67;;;;;8.75;86.97;103491.84;5071862;27;45455;-71
2022/01/28 08:32:29;;;;;;;;;65.75;48.50;;;;;8.84;86.61;103498.91;5056090;28;46213;-71
2022/01/28 08:34:54;;;;;;;;;59.33;45.33;;;;;8.87;86.29;103485.81;5055388;28;46369;-70
2022/01/28 08:37:20;;;;;;;;;55.75;42.50;;;;;8.97;86.19;103495.50;5057149;28;47611;-70
2022/01/28 08:39:46;;;;;;;;;59.50;40.75;;;;;9.04;86.01;103501.72;5053842;28;45509;-71
2022/01/28 08:42:13;;;;;;;;;56.25;40.50;;;;;9.09;85.79;103506.13;5055468;27;46034;-70
2022/01/28 08:44:38;;;;;;;;;59.25;40.50;;;;;9.15;85.59;103511.41;5055203;28;45504;-71
2022/01/28 08:47:04;;;;;;;;;89.50;65.00;;;;;9.13;85.49;103510.53;5056220;28;45604;-70
2022/01/28 08:49:29;;;;;;;;;52.25;41.50;;;;;9.15;85.33;103516.66;5054744;28;45341;-70
2022/01/28 08:51:54;;;;;;;;;67.00;48.67;;;;;9.20;84.97;103518.44;5053100;28;51619;-71
2022/01/28 08:54:20;;;;;;;;;57.25;43.75;;;;;9.19;85.35;103516.66;5052654;28;45480;-71
2022/01/28 08:56:45;;;;;;;;;59.00;43.00;;;;;9.23;85.32;103523.69;5051308;28;45907;-71
2022/01/28 08:59:11;;;;;;;;;59.00;44.00;;;;;9.26;84.67;103536.84;5043653;28;45486;-70
2022/01/28 09:01:36;;;;;;;;;54.75;42.25;;;;;9.31;84.92;103538.63;5052946;28;45333;-71
2022/01/28 09:04:01;;;;;;;;;61.00;42.75;;;;;9.43;84.83;103540.47;5050898;28;45478;-71
2022/01/28 09:06:27;;;;;;;;;61.00;44.00;;;;;9.59;85.16;103547.56;5049045;28;45658;-70
2022/01/28 09:08:55;;;;;;;;;63.00;44.33;;;;;9.67;84.67;103545.88;5050848;28;45470;-70
2022/01/28 09:13:49;;;;;;;;;63.75;48.25;;;;;9.74;84.23;103544.16;5052064;28;45921;-71
2022/01/28 09:16:15;;;;;;;;;61.00;46.25;;;;;9.87;83.91;103558.25;5061621;28;45581;-70
2022/01/28 09:18:40;;;;;;;;;60.50;41.00;;;;;10.00;83.77;103546.03;5053453;28;45367;-71
2022/01/28 09:21:06;;;;;;;;;57.50;41.25;;;;;10.14;83.41;103561.00;5052636;28;45383;-71
2022/01/28 09:23:31;;;;;;;;;62.00;42.50;;;;;10.19;83.33;103546.13;5052599;28;47121;-71
2022/01/28 09:25:56;;;;;;;;;86.00;63.00;;;;;10.22;82.50;103562.75;5052280;28;45395;-71
2022/01/28 09:28:22;;;;;;;;;57.75;45.00;;;;;10.22;82.51;103561.00;5052703;28;45372;-70
2022/01/28 09:30:47;;;;;;;;;62.00;44.25;;;;;10.23;82.68;103554.00;5052980;28;46199;-70
2022/01/28 09:33:13;;;;;;;;;62.50;45.00;;;;;10.30;83.04;103556.69;5052824;28;45502;-70
2022/01/28 09:35:41;;;;;;;;;59.50;45.00;;;;;10.43;82.84;103560.22;5052551;28;45481;-71
2022/01/28 09:38:07;;;;;;;;;61.00;46.50;;;;;10.61;83.07;103562.91;5053718;28;45465;-71
2022/01/28 09:40:33;;;;;;;;;64.50;48.75;;;;;10.85;82.53;103571.72;5055828;28;46559;-70
2022/01/28 09:43:00;;;;;;;;;61.25;45.50;;;;;11.27;82.64;103554.16;5055559;28;45876;-70
2022/01/28 09:45:25;;;;;;;;;64.00;45.50;;;;;12.02;81.22;103557.56;5057045;28;45572;-71
2022/01/28 09:47:54;;;;;;;;;56.25;44.50;;;;;13.14;80.76;103559.47;5055017;28;45454;-70
2022/01/28 09:50:22;;;;;;;;;60.50;44.00;;;;;14.32;77.71;103546.75;5055610;28;45443;-70
2022/01/28 09:52:51;;;;;;;;;65.75;45.25;;;;;14.59;75.12;103539.31;5054006;28;45406;-71
2022/01/28 09:55:19;;;;;;;;;62.50;45.25;;;;;15.09;73.65;103554.41;5058331;28;45580;-71
2022/01/28 09:57:51;;;;;;;;;56.75;41.25;;;;;15.44;72.41;103552.03;5057690;28;45425;-71
2022/01/28 10:00:17;;;;;;;;;62.00;41.75;;;;;15.23;70.91;103545.34;5059276;28;45536;-71
2022/01/28 10:02:59;;;;;;;;;58.75;44.25;;;;;15.31;72.08;103556.69;5057569;28;45916;-71
2022/01/28 10:05:33;;;;;;;;;62.50;46.00;;;;;16.01;71.30;103549.16;5056731;28;45375;-71
2022/01/28 10:08:05;;;;;;;;;57.25;41.50;;;;;16.01;69.85;103546.50;5058839;28;45362;-70
2022/01/28 10:11:08;;;;;;;;;59.25;41.00;;;;;16.01;69.86;103555.34;5058630;28;45542;-71
2022/01/28 10:13:45;;;;;;;;;59.25;43.00;;;;;15.97;69.03;103555.44;5063443;28;45932;-70
2022/01/28 10:16:13;;;;;;;;;62.25;44.00;;;;;16.52;68.67;103548.94;5038027;28;45294;-71
2022/01/28 10:18:41;;;;;;;;;59.00;44.75;;;;;17.14;67.68;103546.56;5057276;28;45365;-68
2022/01/28 10:21:40;;;;;;;;;55.75;43.00;;;;;17.00;65.92;103552.22;5056295;28;46451;-68
2022/01/28 10:24:11;;;;;;;;;62.25;46.75;;;;;16.49;65.68;103559.59;5054547;28;46001;-70
2022/01/28 10:27:14;;;;;;;;;56.00;42.50;;;;;16.05;65.64;103566.78;5053846;28;45451;-70
2022/01/28 10:29:42;;;;;;;;;58.00;45.00;;;;;15.55;65.38;103568.59;4994252;28;45516;-70
2022/01/28 10:32:12;;;;;;;;;60.00;44.75;;;;;15.16;66.77;103556.94;4993842;28;47660;-70
2022/01/28 10:34:46;;;;;;;;;58.25;43.25;;;;;14.89;67.17;103556.50;4993991;28;45608;-70
2022/01/28 10:37:19;;;;;;;;;58.75;44.75;;;;;14.74;67.38;103560.28;4994605;28;45403;-70
2022/01/28 10:39:50;;;;;;;;;64.25;47.50;;;;;14.61;67.03;103564.84;4995050;28;45473;-70
2022/01/28 10:42:37;;;;;;;;;56.50;45.25;;;;;14.43;67.62;103558.94;4994219;28;46517;-70
2022/01/28 10:45:15;;;;;;;;;64.25;46.50;;;;;14.36;68.52;103559.03;4993717;28;45412;-70
2022/01/28 10:47:41;;;;;;;;;52.00;38.50;;;;;14.35;67.94;103566.97;4994597;28;45355;-70
2022/01/28 10:50:27;;;;;;;;;57.00;42.50;;;;;14.30;68.05;103568.78;4994070;28;45359;-70
2022/01/28 10:52:58;;;;;;;;;58.75;44.75;;;;;14.19;68.25;103571.59;4993788;28;45725;-70
2022/01/28 10:55:23;;;;;;;;;58.75;42.25;;;;;13.96;67.98;103571.00;4977855;28;46099;-70
2022/01/28 10:58:03;;;;;;;;;56.50;43.75;;;;;13.82;68.46;103579.09;4994227;28;45388;-70
2022/01/28 11:00:31;;;;;;;;;56.50;40.00;;;;;13.66;68.42;103580.16;4994238;28;45420;-70
2022/01/28 11:03:02;;;;;;;;;52.75;39.50;;;;;13.38;68.66;103574.28;4993823;28;46494;-70
2022/01/28 11:05:30;;;;;;;;;62.25;48.00;;;;;13.08;68.79;103563.06;5030164;28;45387;-70
2022/01/28 11:07:57;;;;;;;;;49.75;36.50;;;;;13.12;68.83;103582.41;5053243;28;45430;-70
2022/01/28 11:10:22;;;;;;;;;40.75;32.75;;;;;13.03;68.48;103581.56;5053499;28;45273;-70
2022/01/28 11:12:50;;;;;;;;;45.50;33.00;;;;;12.99;69.15;103585.09;5071266;28;47134;-70
2022/01/28 11:15:16;;;;;;;;;30.00;24.75;;;;;12.88;68.84;103586.97;5053695;28;45453;-70
2022/01/28 11:17:41;;;;;;;;;32.75;26.25;;;;;12.82;69.42;103597.56;5053142;28;45321;-71
2022/01/28 11:20:08;;;;;;;;;31.00;25.50;;;;;12.69;68.93;103580.94;5053187;28;45360;-70
2022/01/28 11:22:59;;;;;;;;;34.25;25.00;;;;;12.65;69.27;103592.41;5054577;28;47285;-69
2022/01/28 11:25:39;;;;;;;;;35.25;25.00;;;;;12.56;69.06;103578.38;5039411;28;46018;-70
2022/01/28 11:28:09;;;;;;;;;45.50;33.25;;;;;12.48;69.38;103576.69;5055140;28;45490;-71
2022/01/28 11:30:35;;;;;;;;;32.00;24.00;;;;;12.50;68.95;103566.09;5052208;28;45376;-71
2022/01/28 11:33:06;;;;;;;;;28.25;20.75;;;;;12.50;69.13;103566.09;5052808;28;46031;-69
2022/01/28 11:35:37;;;;;;;;;34.00;24.00;;;;;12.51;69.22;103573.13;5052856;28;45817;-70
2022/01/28 11:38:24;;;;;;;;;7.75;2.75;;;;;12.53;68.82;103568.75;5054567;28;45462;-70
2022/01/28 11:40:55;;;;;;;;;19.25;14.75;;;;;12.57;68.91;103553.75;5053886;28;45470;-69
2022/01/28 11:43:23;;;;;;;;;31.50;24.50;;;;;12.58;69.06;103559.03;5054866;28;46523;-70
2022/01/28 11:46:08;;;;;;;;;34.00;30.50;;;;;12.59;68.51;103558.16;5068235;28;49555;-68
2022/01/28 11:48:51;;;;;;;;;30.75;23.00;;;;;12.62;69.07;103563.38;5056459;28;45371;-69
2022/01/28 11:51:38;;;;;;;;;29.75;25.25;;;;;12.60;68.73;103551.97;5051840;28;45367;-69
2022/01/28 11:54:06;;;;;;;;;46.75;36.50;;;;;12.67;69.04;103552.81;5051250;28;46463;-69
2022/01/28 11:56:31;;;;;;;;;30.50;24.50;;;;;12.65;68.86;103537.00;5059969;28;45423;-69
2022/01/28 11:59:02;;;;;;;;;41.50;30.00;;;;;12.72;68.95;103549.25;5050733;28;45457;-69
2022/01/28 12:01:40;;;;;;;;;62.00;46.25;;;;;12.71;68.67;103541.34;5063801;27;45457;-69
2022/01/28 12:04:26;;;;;;;;;35.50;24.25;;;;;12.75;68.90;103543.97;5049681;28;46109;-69
2022/01/28 12:06:57;;;;;;;;;27.25;25.00;;;;;12.78;68.78;103537.75;5047346;28;45477;-69
2022/01/28 12:09:23;;;;;;;;;35.75;29.25;;;;;12.78;68.27;103511.38;5049510;28;45568;-69
2022/01/28 12:11:49;;;;;;;;;30.75;29.50;;;;;12.82;68.54;103504.31;5049186;28;45724;-69
2022/01/28 12:14:15;;;;;;;;;44.50;37.25;;;;;12.89;68.17;103506.00;5049700;28;45549;-69
2022/01/28 12:16:45;;;;;;;;;57.25;45.75;;;;;12.99;68.61;103508.56;5049853;28;45484;-67
2022/01/28 12:19:20;;;;;;;;;73.00;56.25;;;;;13.21;68.13;103513.66;5050147;28;45554;-68
2022/01/28 12:22:24;;;;;;;;;38.75;31.00;;;;;13.35;67.67;103505.63;5056389;28;45604;-67
2022/01/28 12:24:49;;;;;;;;;40.00;32.25;;;;;13.34;67.23;103493.31;5029431;28;46512;-67
2022/01/28 12:27:17;;;;;;;;;28.75;25.50;;;;;13.38;66.87;103505.59;5032955;28;49585;-68
2022/01/28 12:29:44;;;;;;;;;65.00;49.75;;;;;13.39;66.65;103500.28;5029752;28;45539;-68
2022/01/28 12:32:10;;;;;;;;;55.75;44.00;;;;;13.41;66.86;103479.13;5029016;28;45463;-68
2022/01/28 12:34:43;;;;;;;;;28.00;21.75;;;;;13.36;66.88;103475.66;5028897;28;45580;-68
2022/01/28 12:37:09;;;;;;;;;27.00;22.50;;;;;13.32;66.86;103473.06;5029058;28;45788;-68
2022/01/28 12:39:51;;;;;;;;;30.75;24.50;;;;;13.32;66.32;103459.00;5032348;28;45520;-67
2022/01/28 12:42:23;;;;;;;;;47.00;37.00;;;;;13.37;66.89;103469.53;5028103;28;45395;-67